Kapitan Dranitsyn — UCJP — position and weather

sailwx.info

Track history (hours):
 
Tides and Currents Weather Stations Pressure Air Temp Water Temp Dewpoint Dewpoint Depression Visibility Wind Speed Wind Dir Waves Ship Positions

Oceanographic research ship Kapitan Dranitsyn (Russia)

Detailed information on ship capabilities available from ARCUS's ALIAS (Arctic Logistics Information and Support) project.

Last reported at 2020-Jan-07 12:29 UTC. Time now 2020-Jan-20 08:23 UTC.
Position N 69°01' E 033°02'.
Warning: this ship's position is 12 days out of date.

Length 132 m; beam 27 m.

Type: Other ship. MMSI: 273138300.

Date/timePositionNaut miles runAvg speedWind from/ knotsBaromVisibWave heightAir tempDewpointWater temp
2020-Jan-07 12:29N 69°01' E 033°02'0 0.0
2020-Jan-07 11:26N 69°01' E 033°02'0 0.0
2020-Jan-07 10:29N 69°01' E 033°02'0 0.0
2020-Jan-07 09:23N 69°01' E 033°02'53 8.0
2020-Jan-07 02:50N 69°53' E 033°33'410.4
2020-Jan-07 02:30N 69°56' E 033°33'811.1
2020-Jan-07 01:44N 70°05' E 033°33'1311.2
2020-Jan-07 00:35N 70°17' E 033°32'311.5
2020-Jan-07 00:17N 70°20' E 033°24'411.8
2020-Jan-06 23:57N 70°22' E 033°15'1111.5
2020-Jan-06 23:00N 70°28' E 032°48'2311.7
2020-Jan-06 21:00N 70°42' E 031°50'15 9.9
2020-Jan-06 19:30N 70°52' E 031°18'5 9.1
2020-Jan-06 19:00N 70°54' E 031°06'24 9.5
2020-Jan-06 16:30N 71°08' E 030°06'5 9.7
2020-Jan-06 16:00N 71°10' E 029°54'9 9.4
2020-Jan-06 15:00N 71°17' E 029°32'18 8.8
2020-Jan-06 13:00N 71°25' E 028°44'5 9.2
2020-Jan-06 12:30N 71°27' E 028°30'3010.2
2020-Jan-06 09:30N 71°34' E 026°57'5 9.0
2020-Jan-06 08:59N 71°34' E 026°43'14 9.0
2020-Jan-06 07:29N 71°33' E 025°60'4111.7
2020-Jan-06 04:00N 71°32' E 023°50'510.2
2020-Jan-06 03:30N 71°31' E 023°35'2110.3
2020-Jan-06 01:30N 71°28' E 022°30'1610.8
2020-Jan-06 00:00N 71°22' E 021°44'611.1
2020-Jan-05 23:30N 71°18' E 021°31'510.9
2020-Jan-05 23:00N 71°14' E 021°22'610.9
2020-Jan-05 22:29N 71°09' E 021°15'511.1
2020-Jan-05 22:00N 71°03' E 021°12'4011.5
2020-Jan-05 18:30N 70°25' E 020°39'4512.8
2020-Jan-05 15:00N 69°48' E 019°23'11 5.3
2020-Jan-05 13:00N 69°41' E 018°60'0 0.0
2020-Jan-05 12:00N 69°41' E 018°60'0 0.0
2020-Jan-05 10:30N 69°41' E 018°60'0 0.0
2020-Jan-05 09:30N 69°41' E 018°60'0 0.0
2020-Jan-05 09:00N 69°41' E 018°60'0 0.0
2020-Jan-05 08:30N 69°41' E 018°60'0 0.0
2020-Jan-05 07:30N 69°41' E 018°60'0 0.0
2020-Jan-05 07:00N 69°41' E 018°60'0 0.0
2020-Jan-05 06:00N 69°41' E 018°60'0 0.0
2020-Jan-05 05:30N 69°41' E 018°60'0 0.0
2020-Jan-04 22:30N 69°41' E 018°60'0 0.0
2020-Jan-04 21:00N 69°41' E 018°60'0 0.0
2020-Jan-04 20:30N 69°41' E 018°60'0 0.0
2020-Jan-04 19:30N 69°41' E 018°60'0 0.0
2020-Jan-04 17:00N 69°41' E 018°60'0 0.0
2020-Jan-04 16:00N 69°41' E 018°60'0 0.0
2020-Jan-04 15:30N 69°41' E 018°60'0 0.0
2020-Jan-04 15:00N 69°41' E 018°60'0 0.0
2020-Jan-04 14:00N 69°41' E 018°60'0 0.0
2020-Jan-04 10:00N 69°41' E 018°60'0 0.0
2020-Jan-04 08:29N 69°41' E 018°60'0 0.0
2020-Jan-04 07:59N 69°41' E 018°60'0 0.0
2020-Jan-04 06:59N 69°41' E 018°60'0 0.0
2020-Jan-04 06:29N 69°41' E 018°60'0 0.0
2020-Jan-04 04:59N 69°41' E 018°60'0 0.0
2020-Jan-04 04:29N 69°41' E 018°60'0 0.0
2020-Jan-04 02:59N 69°41' E 018°60'0 0.0
2020-Jan-03 20:59N 69°41' E 018°60'0 0.0
2020-Jan-03 18:59N 69°41' E 018°60'0 0.0
2020-Jan-03 13:29N 69°41' E 018°60'0 0.0
2020-Jan-03 12:29N 69°41' E 018°60'0 0.0
2020-Jan-03 11:59N 69°41' E 018°60'0 0.0
2020-Jan-03 10:29N 69°41' E 018°60'0 0.0
2020-Jan-03 08:59N 69°41' E 018°60'0 0.0
2020-Jan-03 07:29N 69°41' E 018°60'0 0.0
2020-Jan-03 06:59N 69°41' E 018°60'0 0.0
2020-Jan-03 05:30N 69°41' E 018°60'0 0.0
2020-Jan-03 04:01N 69°41' E 018°60'0 0.0
2020-Jan-03 02:30N 69°41' E 018°60'0 0.0
2020-Jan-03 00:00N 69°41' E 018°60'0 0.0
2020-Jan-02 21:30N 69°41' E 018°60'0 0.0
2020-Jan-02 21:00N 69°41' E 018°60'0 0.0
2020-Jan-02 20:00N 69°41' E 018°60'0 0.0
2020-Jan-02 16:00N 69°41' E 018°60'0 0.0
2020-Jan-02 14:30N 69°41' E 018°60'0 0.0
2020-Jan-02 14:00N 69°41' E 018°60'0 0.0
2020-Jan-02 10:29N 69°41' E 018°60'0 0.0
2020-Jan-02 07:59N 69°41' E 018°60'0 0.0
2020-Jan-02 07:29N 69°41' E 018°60'0 0.0
2020-Jan-02 05:29N 69°41' E 018°60'0 0.0
2020-Jan-02 00:28N 69°41' E 018°60'0 0.0
2020-Jan-01 20:58N 69°41' E 018°60'0 0.0
2020-Jan-01 19:28N 69°41' E 018°60'0 0.0
2020-Jan-01 18:30N 69°41' E 018°60'0 1.0
2020-Jan-01 18:00N 69°41' E 019°01'3913.0
2020-Jan-01 15:00N 70°10' E 020°18'2311.6
2020-Jan-01 13:00N 70°30' E 020°49'1211.6
2020-Jan-01 12:00N 70°42' E 020°53'510.3
2020-Jan-01 11:30N 70°47' E 020°51'11 7.7
2020-Jan-01 10:00N 70°55' E 020°27'2113.6
2020-Jan-01 08:30N 71°12' E 021°04'1313.1
2020-Jan-01 07:30N 71°23' E 021°23'2013.0
2020-Jan-01 06:00N 71°38' E 022°03'3213.0
2020-Jan-01 03:30N 72°02' E 023°14'  
Track history (hours):
 
Tides and Currents Weather Stations Pressure Air Temp Water Temp Dewpoint Dewpoint Depression Visibility Wind Speed Wind Dir Waves Ship Positions

Oceanographic research ship Kapitan Dranitsyn (Russia)

Detailed information on ship capabilities available from ARCUS's ALIAS (Arctic Logistics Information and Support) project.

Last reported at 2020-Jan-07 12:29 UTC. Time now 2020-Jan-20 08:23 UTC.
Position N 69°01' E 033°02'.
Warning: this ship's position is 12 days out of date.

Length 132 m; beam 27 m.

Type: Other ship. MMSI: 273138300.

Date/timePositionNaut miles runAvg speedWind from/ knotsBaromVisibWave heightAir tempDewpointWater temp
2020-Jan-07 12:29N 69°01' E 033°02'0 0.0
2020-Jan-07 11:26N 69°01' E 033°02'0 0.0
2020-Jan-07 10:29N 69°01' E 033°02'0 0.0
2020-Jan-07 09:23N 69°01' E 033°02'53 8.0
2020-Jan-07 02:50N 69°53' E 033°33'410.4
2020-Jan-07 02:30N 69°56' E 033°33'811.1
2020-Jan-07 01:44N 70°05' E 033°33'1311.2
2020-Jan-07 00:35N 70°17' E 033°32'311.5
2020-Jan-07 00:17N 70°20' E 033°24'411.8
2020-Jan-06 23:57N 70°22' E 033°15'1111.5
2020-Jan-06 23:00N 70°28' E 032°48'2311.7
2020-Jan-06 21:00N 70°42' E 031°50'15 9.9
2020-Jan-06 19:30N 70°52' E 031°18'5 9.1
2020-Jan-06 19:00N 70°54' E 031°06'24 9.5
2020-Jan-06 16:30N 71°08' E 030°06'5 9.7
2020-Jan-06 16:00N 71°10' E 029°54'9 9.4
2020-Jan-06 15:00N 71°17' E 029°32'18 8.8
2020-Jan-06 13:00N 71°25' E 028°44'5 9.2
2020-Jan-06 12:30N 71°27' E 028°30'3010.2
2020-Jan-06 09:30N 71°34' E 026°57'5 9.0
2020-Jan-06 08:59N 71°34' E 026°43'14 9.0
2020-Jan-06 07:29N 71°33' E 025°60'4111.7
2020-Jan-06 04:00N 71°32' E 023°50'510.2
2020-Jan-06 03:30N 71°31' E 023°35'2110.3
2020-Jan-06 01:30N 71°28' E 022°30'1610.8
2020-Jan-06 00:00N 71°22' E 021°44'611.1
2020-Jan-05 23:30N 71°18' E 021°31'510.9
2020-Jan-05 23:00N 71°14' E 021°22'610.9
2020-Jan-05 22:29N 71°09' E 021°15'511.1
2020-Jan-05 22:00N 71°03' E 021°12'4011.5
2020-Jan-05 18:30N 70°25' E 020°39'4512.8
2020-Jan-05 15:00N 69°48' E 019°23'11 5.3
2020-Jan-05 13:00N 69°41' E 018°60'0 0.0
2020-Jan-05 12:00N 69°41' E 018°60'0 0.0
2020-Jan-05 10:30N 69°41' E 018°60'0 0.0
2020-Jan-05 09:30N 69°41' E 018°60'0 0.0
2020-Jan-05 09:00N 69°41' E 018°60'0 0.0
2020-Jan-05 08:30N 69°41' E 018°60'0 0.0
2020-Jan-05 07:30N 69°41' E 018°60'0 0.0
2020-Jan-05 07:00N 69°41' E 018°60'0 0.0
2020-Jan-05 06:00N 69°41' E 018°60'0 0.0
2020-Jan-05 05:30N 69°41' E 018°60'0 0.0
2020-Jan-04 22:30N 69°41' E 018°60'0 0.0
2020-Jan-04 21:00N 69°41' E 018°60'0 0.0
2020-Jan-04 20:30N 69°41' E 018°60'0 0.0
2020-Jan-04 19:30N 69°41' E 018°60'0 0.0
2020-Jan-04 17:00N 69°41' E 018°60'0 0.0
2020-Jan-04 16:00N 69°41' E 018°60'0 0.0
2020-Jan-04 15:30N 69°41' E 018°60'0 0.0
2020-Jan-04 15:00N 69°41' E 018°60'0 0.0
2020-Jan-04 14:00N 69°41' E 018°60'0 0.0
2020-Jan-04 10:00N 69°41' E 018°60'0 0.0
2020-Jan-04 08:29N 69°41' E 018°60'0 0.0
2020-Jan-04 07:59N 69°41' E 018°60'0 0.0
2020-Jan-04 06:59N 69°41' E 018°60'0 0.0
2020-Jan-04 06:29N 69°41' E 018°60'0 0.0
2020-Jan-04 04:59N 69°41' E 018°60'0 0.0
2020-Jan-04 04:29N 69°41' E 018°60'0 0.0
2020-Jan-04 02:59N 69°41' E 018°60'0 0.0
2020-Jan-03 20:59N 69°41' E 018°60'0 0.0
2020-Jan-03 18:59N 69°41' E 018°60'0 0.0
2020-Jan-03 13:29N 69°41' E 018°60'0 0.0
2020-Jan-03 12:29N 69°41' E 018°60'0 0.0
2020-Jan-03 11:59N 69°41' E 018°60'0 0.0
2020-Jan-03 10:29N 69°41' E 018°60'0 0.0
2020-Jan-03 08:59N 69°41' E 018°60'0 0.0
2020-Jan-03 07:29N 69°41' E 018°60'0 0.0
2020-Jan-03 06:59N 69°41' E 018°60'0 0.0
2020-Jan-03 05:30N 69°41' E 018°60'0 0.0
2020-Jan-03 04:01N 69°41' E 018°60'0 0.0
2020-Jan-03 02:30N 69°41' E 018°60'0 0.0
2020-Jan-03 00:00N 69°41' E 018°60'0 0.0
2020-Jan-02 21:30N 69°41' E 018°60'0 0.0
2020-Jan-02 21:00N 69°41' E 018°60'0 0.0
2020-Jan-02 20:00N 69°41' E 018°60'0 0.0
2020-Jan-02 16:00N 69°41' E 018°60'0 0.0
2020-Jan-02 14:30N 69°41' E 018°60'0 0.0
2020-Jan-02 14:00N 69°41' E 018°60'0 0.0
2020-Jan-02 10:29N 69°41' E 018°60'0 0.0
2020-Jan-02 07:59N 69°41' E 018°60'0 0.0
2020-Jan-02 07:29N 69°41' E 018°60'0 0.0
2020-Jan-02 05:29N 69°41' E 018°60'0 0.0
2020-Jan-02 00:28N 69°41' E 018°60'0 0.0
2020-Jan-01 20:58N 69°41' E 018°60'0 0.0
2020-Jan-01 19:28N 69°41' E 018°60'0 0.0
2020-Jan-01 18:30N 69°41' E 018°60'0 1.0
2020-Jan-01 18:00N 69°41' E 019°01'3913.0
2020-Jan-01 15:00N 70°10' E 020°18'2311.6
2020-Jan-01 13:00N 70°30' E 020°49'1211.6
2020-Jan-01 12:00N 70°42' E 020°53'510.3
2020-Jan-01 11:30N 70°47' E 020°51'11 7.7
2020-Jan-01 10:00N 70°55' E 020°27'2113.6
2020-Jan-01 08:30N 71°12' E 021°04'1313.1
2020-Jan-01 07:30N 71°23' E 021°23'2013.0
2020-Jan-01 06:00N 71°38' E 022°03'3213.0
2020-Jan-01 03:30N 72°02' E 023°14'  

Dump ship's entire track history